Zamboanga International Airport
RPMZ : now visible

Airfield :











YOU CAN JOIN US ON...

 
LOGIN :

Register | Disclaimer

   EN    FR    IT 

 









Legend :    VFR   Marginal VFR   IFR   Intensive IFR   Very Intensive IFR
Visi :
Ceiling :
>= 8 km
>= 3000ft
5 to 8 km
1000 to 3000 ft
1500m to 5 km
500 to 1000 ft
800 to 1500m
200 to 500 ft
< 800m
< 200 ft
Symbols :   Thunderstorms  Fog  Heavy snow  Heavy precipitations  Wind > 20 kt






- Airport Elevation : 33 ft
- IATA code : ZAM


RPMZ - Zamboanga International

CURRENT METAR :
  • 201500Z 03003KT 350V080 9999 FEW017 SCT300 26/25 Q1010 RMK A2983

EXPIRED METARs :
  • 201200Z VRB02KT 9999 FEW017 SCT300 28/26 Q1008 RMK A2977

TAF TAF RPMZ
Valid from the 20 at 12:00 until the 21 at 12:00 UTC


201100Z 2012/2112 10009KT 9999 FEW017 SCT090
TEMPO 2015/2021 -SHRA SCT016CB BKN090
RPHI FIR / Asia



MET'MAP, your aeronautical weather chart ! - Copyright ORBIFLY December 2007 - Disclaimer

ORBIFLY MET'MAP TEAM :

Programming & Development : Alexandra Zaïnal
Original concept : Baudouin d'Aumeries
Technical & hardware support : Manuel Goepfert
Assistance : Marc-Olivier Méhu




SOURCES & CREDITS :

   NOAA       Earth
Advisory